Time;durP1;ratioP1;P1;durP2;ratioP2;P2;SDS_P1;SDS_P2;PMS_P1;PMS_P2;Temp;Humidity;BMP_temperature;BMP_pressure;BME280_temperature;BME280_humidity;BME280_pressure;Samples;Min_cycle;Max_cycle;Signal;HPM_P1;HPM_P2
2023/05/12 00:01:40;;;;;;;9.52;4.15;;;;;;;15.66;47.67;101049.84;5077871;28;20040;-71
2023/05/12 00:04:08;;;;;;;6.95;4.28;;;;;;;15.60;47.71;101047.59;5088769;28;20090;-69
2023/05/12 00:06:35;;;;;;;10.50;4.10;;;;;;;15.55;47.68;101047.09;5081358;28;20063;-70
2023/05/12 00:09:02;;;;;;;9.65;3.88;;;;;;;15.50;47.63;101048.41;5084570;28;20044;-70
2023/05/12 00:11:29;;;;;;;8.88;3.63;;;;;;;15.47;47.88;101045.97;5080028;28;20056;-71
2023/05/12 00:13:57;;;;;;;5.88;3.50;;;;;;;15.41;47.97;101042.81;5086598;28;20082;-70
2023/05/12 00:16:24;;;;;;;10.18;4.05;;;;;;;15.37;48.06;101051.94;5084600;28;20047;-70
2023/05/12 00:18:51;;;;;;;8.32;3.92;;;;;;;15.33;48.20;101049.63;5082934;28;20543;-70
2023/05/12 00:21:19;;;;;;;9.90;3.83;;;;;;;15.31;48.28;101049.75;5083530;28;20058;-71
2023/05/12 00:23:46;;;;;;;8.15;3.92;;;;;;;15.30;48.25;101047.19;5088141;28;20048;-70
2023/05/12 00:26:13;;;;;;;6.45;3.72;;;;;;;15.27;48.13;101047.41;5090117;28;20622;-70
2023/05/12 00:28:41;;;;;;;6.50;3.88;;;;;;;15.26;48.21;101040.41;5090111;28;20127;-71
2023/05/12 00:31:08;;;;;;;5.75;3.50;;;;;;;15.25;48.01;101042.19;5086900;28;20198;-70
2023/05/12 00:33:35;;;;;;;6.13;4.20;;;;;;;15.20;48.19;101039.88;5091941;28;20412;-71
2023/05/12 00:36:03;;;;;;;12.60;3.97;;;;;;;15.15;48.11;101044.66;5069876;28;20055;-70
2023/05/12 00:38:32;;;;;;;7.40;3.97;;;;;;;15.09;48.32;101052.22;5092645;28;20076;-70
2023/05/12 00:41:00;;;;;;;7.47;4.10;;;;;;;15.02;48.16;101049.16;5087974;28;20127;-73
2023/05/12 00:43:28;;;;;;;10.00;3.50;;;;;;;14.96;48.86;101052.25;5087698;28;20135;-70
2023/05/12 00:45:55;;;;;;;6.65;3.80;;;;;;;14.86;48.89;101053.81;5082613;28;20048;-70
2023/05/12 00:48:23;;;;;;;5.80;3.30;;;;;;;14.77;49.40;101047.38;5086169;28;20052;-70
2023/05/12 00:50:50;;;;;;;6.40;3.70;;;;;;;14.69;49.42;101047.06;5087016;28;20082;-70
2023/05/12 00:53:18;;;;;;;3.88;3.22;;;;;;;14.63;49.65;101055.41;5086460;28;20052;-70
2023/05/12 00:55:45;;;;;;;8.38;3.80;;;;;;;14.59;49.70;101052.16;5087476;28;20052;-70
2023/05/12 00:58:12;;;;;;;12.90;3.58;;;;;;;14.56;49.70;101055.00;5085927;28;20055;-68
2023/05/12 01:00:39;;;;;;;5.75;3.65;;;;;;;14.54;49.37;101054.25;5069295;28;20060;-70
2023/05/12 01:03:07;;;;;;;7.50;3.65;;;;;;;14.52;49.59;101050.88;5087936;28;20048;-70
2023/05/12 01:06:33;;;;;;;5.82;4.30;;;;;;;14.50;49.40;101054.56;5079283;28;20040;-71
2023/05/12 01:09:00;;;;;;;8.55;3.70;;;;;;;14.47;49.64;101055.63;5012321;28;20143;-70
2023/05/12 01:11:27;;;;;;;8.80;3.83;;;;;;;14.47;49.62;101058.25;5002441;28;20048;-71
2023/05/12 01:13:54;;;;;;;8.20;4.13;;;;;;;14.47;49.80;101060.91;5036660;28;20058;-69
2023/05/12 01:16:23;;;;;;;11.02;3.90;;;;;;;14.47;49.94;101058.25;5086681;28;20047;-70
2023/05/12 01:18:53;;;;;;;9.93;4.30;;;;;;;14.47;49.68;101060.91;5087431;28;20143;-70
2023/05/12 01:21:20;;;;;;;7.30;4.15;;;;;;;14.46;49.50;101064.53;5085361;28;20341;-69
2023/05/12 01:23:58;;;;;;;7.32;3.67;;;;;;;14.47;49.62;101060.91;5088019;28;20075;-70
2023/05/12 01:26:26;;;;;;;8.73;4.03;;;;;;;14.47;49.91;101068.00;5088112;28;20059;-70
2023/05/12 01:28:53;;;;;;;13.35;4.15;;;;;;;14.48;49.72;101061.75;5089613;28;20051;-71
2023/05/12 01:31:21;;;;;;;8.10;4.60;;;;;;;14.47;49.97;101070.66;5086260;28;20058;-69
2023/05/12 01:33:48;;;;;;;8.00;4.03;;;;;;;14.51;49.47;101066.88;5087870;28;20055;-70
2023/05/12 01:36:15;;;;;;;11.43;3.72;;;;;;;14.49;49.56;101069.63;5083027;28;20057;-69
2023/05/12 01:38:42;;;;;;;6.75;3.55;;;;;;;14.44;49.61;101069.91;5087012;28;20435;-71
2023/05/12 01:41:10;;;;;;;4.63;3.45;;;;;;;14.41;49.71;101072.78;5089879;28;20073;-70
2023/05/12 01:43:37;;;;;;;6.75;4.20;;;;;;;14.39;50.09;101071.16;5089383;28;20637;-70
2023/05/12 01:46:04;;;;;;;5.78;3.80;;;;;;;14.36;49.98;101074.91;5086240;28;20450;-70
2023/05/12 01:48:32;;;;;;;9.95;4.75;;;;;;;14.34;49.97;101070.63;5083958;28;20055;-69
2023/05/12 01:51:00;;;;;;;8.20;4.35;;;;;;;14.31;49.91;101070.84;5068385;28;20052;-69
2023/05/12 01:53:27;;;;;;;10.75;4.82;;;;;;;14.28;50.13;101076.34;5085959;28;20044;-70
2023/05/12 01:55:54;;;;;;;9.30;4.30;;;;;;;14.25;50.28;101072.09;5088434;28;20063;-70
2023/05/12 01:58:21;;;;;;;6.05;3.90;;;;;;;14.19;50.59;101070.72;5088052;28;20131;-71
2023/05/12 02:00:49;;;;;;;6.93;3.90;;;;;;;14.14;50.69;101069.34;5077674;28;20052;-69
2023/05/12 02:03:16;;;;;;;7.95;4.25;;;;;;;14.13;50.62;101078.22;5084574;28;21138;-69
2023/05/12 02:05:43;;;;;;;12.50;4.40;;;;;;;14.09;50.70;101079.38;5081503;28;20060;-70
2023/05/12 02:08:10;;;;;;;6.82;3.83;;;;;;;14.05;50.65;101078.75;5079333;28;20079;-70
2023/05/12 02:10:38;;;;;;;11.45;4.47;;;;;;;14.00;50.98;101078.16;5071460;28;20534;-69
2023/05/12 02:13:05;;;;;;;10.60;4.32;;;;;;;13.98;51.42;101082.72;5082451;28;20078;-73
2023/05/12 02:15:57;;;;;;;12.35;4.45;;;;;;;13.95;51.17;101088.22;5083525;28;20036;-69
2023/05/12 02:18:24;;;;;;;7.43;4.28;;;;;;;13.91;51.10;101084.06;5085730;28;20044;-71
2023/05/12 02:20:52;;;;;;;10.32;4.45;;;;;;;13.87;51.43;101087.91;5083294;28;20044;-70
2023/05/12 02:23:19;;;;;;;8.38;4.40;;;;;;;13.84;51.25;101088.94;5083888;28;20177;-69
2023/05/12 02:25:46;;;;;;;14.43;4.82;;;;;;;13.80;51.41;101087.44;5082087;28;20526;-70
2023/05/12 02:28:14;;;;;;;14.43;4.70;;;;;;;13.76;51.59;101098.31;5086934;28;20058;-70
2023/05/12 02:30:47;;;;;;;5.70;4.15;;;;;;;13.73;52.27;101091.41;5088043;28;20090;-69
2023/05/12 02:33:15;;;;;;;10.50;4.00;;;;;;;13.70;52.44;101106.66;5084819;28;20084;-73
2023/05/12 02:35:43;;;;;;;5.63;3.83;;;;;;;13.65;52.08;101099.88;5084633;28;20079;-70
2023/05/12 02:38:11;;;;;;;11.35;3.88;;;;;;;13.59;52.34;101094.94;5082447;28;20423;-68
2023/05/12 02:40:38;;;;;;;8.30;4.47;;;;;;;13.55;52.17;101097.88;5082098;28;20070;-68
2023/05/12 02:43:06;;;;;;;7.53;4.07;;;;;;;13.50;52.22;101099.97;5082555;28;20067;-70
2023/05/12 02:45:33;;;;;;;7.45;4.30;;;;;;;13.46;52.27;101101.97;5081285;28;20055;-70
2023/05/12 02:48:01;;;;;;;10.52;4.53;;;;;;;13.41;52.62;101107.53;5087269;28;20071;-69
2023/05/12 02:50:28;;;;;;;6.43;4.50;;;;;;;13.35;52.77;101096.50;5083499;28;20480;-69
2023/05/12 02:52:56;;;;;;;7.13;4.07;;;;;;;13.28;52.77;101100.47;5081082;28;20044;-70
2023/05/12 02:55:23;;;;;;;6.90;4.57;;;;;;;13.21;53.56;101104.44;5082761;28;20195;-69
2023/05/12 02:57:50;;;;;;;7.95;3.90;;;;;;;13.14;53.42;101104.78;5083589;28;20058;-70
2023/05/12 03:00:17;;;;;;;11.20;4.07;;;;;;;13.09;53.79;101101.59;5081973;28;20050;-69
2023/05/12 03:02:45;;;;;;;12.27;4.53;;;;;;;13.04;53.85;101103.66;5080202;28;20068;-69
2023/05/12 03:05:13;;;;;;;8.02;4.38;;;;;;;12.99;53.99;101096.97;5080425;28;20124;-70
2023/05/12 03:07:40;;;;;;;9.95;4.20;;;;;;;12.93;54.27;101099.06;5085893;28;20137;-70
2023/05/12 03:10:11;;;;;;;10.35;4.10;;;;;;;12.87;54.37;101102.06;5082364;28;20040;-69
2023/05/12 03:12:38;;;;;;;9.93;4.88;;;;;;;12.82;54.63;101095.34;5087210;28;20149;-70
2023/05/12 03:15:06;;;;;;;10.88;4.63;;;;;;;12.76;54.62;101098.38;5083479;28;20504;-71
2023/05/12 03:17:34;;;;;;;9.20;3.65;;;;;;;12.73;55.10;101099.41;5085425;28;20083;-72
2023/05/12 03:21:07;;;;;;;10.30;4.95;;;;;;;12.68;55.07;101102.31;5078530;28;20055;-69
2023/05/12 03:23:35;;;;;;;9.65;5.32;;;;;;;12.65;54.97;101102.53;5075861;28;20071;-69
2023/05/12 03:26:02;;;;;;;12.00;4.85;;;;;;;12.62;55.30;101097.41;5076009;28;20139;-71
2023/05/12 03:28:31;;;;;;;11.10;5.05;;;;;;;12.62;55.21;101109.78;5073123;28;20063;-70
2023/05/12 03:30:58;;;;;;;8.32;4.30;;;;;;;12.61;55.93;101103.66;5086859;28;20060;-70
2023/05/12 03:33:25;;;;;;;9.15;4.35;;;;;;;12.57;55.67;101104.78;5081324;28;20139;-70
2023/05/12 03:35:53;;;;;;;9.85;4.75;;;;;;;12.56;55.60;101102.19;5083209;28;20079;-71
2023/05/12 03:38:20;;;;;;;12.20;4.97;;;;;;;12.56;55.92;101110.13;5080115;28;20063;-69
2023/05/12 03:40:51;;;;;;;8.77;4.88;;;;;;;12.54;55.78;101110.22;5087629;28;20595;-70
2023/05/12 03:43:20;;;;;;;10.93;4.70;;;;;;;12.53;56.10;101110.31;5087149;28;20131;-70
2023/05/12 03:45:47;;;;;;;9.93;5.00;;;;;;;12.50;56.37;101108.69;5067061;28;20135;-71
2023/05/12 03:48:15;;;;;;;8.65;4.95;;;;;;;12.51;56.07;101113.03;5084293;28;20055;-70
2023/05/12 03:50:42;;;;;;;11.18;4.13;;;;;;;12.50;56.31;101113.97;5082476;28;20044;-70
2023/05/12 03:53:09;;;;;;;10.90;4.82;;;;;;;12.48;56.46;101121.16;5079894;28;20062;-70
2023/05/12 03:55:36;;;;;;;7.20;4.57;;;;;;;12.49;55.95;101117.56;5077907;28;20134;-70
2023/05/12 03:58:03;;;;;;;14.75;4.65;;;;;;;12.48;56.49;101110.59;5076549;28;20864;-69
2023/05/12 04:00:31;;;;;;;8.50;4.63;;;;;;;12.50;56.22;101118.41;5081218;28;20044;-69
2023/05/12 04:02:59;;;;;;;16.02;5.00;;;;;;;12.49;56.32;101114.94;5078443;28;20147;-71
2023/05/12 04:05:27;;;;;;;7.60;4.88;;;;;;;12.50;56.50;101121.91;5078178;28;20547;-70
2023/05/12 04:07:54;;;;;;;11.18;5.80;;;;;;;12.51;56.40;101122.75;5098251;28;20477;-71
2023/05/12 04:10:21;;;;;;;18.33;6.18;;;;;;;12.53;55.71;101119.09;5101986;27;20052;-69
2023/05/12 04:12:49;;;;;;;9.70;5.30;;;;;;;12.55;56.02;101119.84;5080262;28;20131;-68
2023/05/12 04:15:16;;;;;;;11.23;5.82;;;;;;;12.57;56.39;101125.06;5082223;28;20071;-69
2023/05/12 04:17:43;;;;;;;9.57;4.80;;;;;;;12.57;56.49;101125.91;5080149;28;20040;-70
2023/05/12 04:20:11;;;;;;;8.45;4.95;;;;;;;12.60;56.20;101127.50;5083157;28;20048;-70
2023/05/12 04:22:38;;;;;;;9.10;4.88;;;;;;;12.63;56.05;101130.81;5080882;28;20131;-70
2023/05/12 04:25:06;;;;;;;10.02;4.80;;;;;;;12.67;56.07;101129.69;5083000;28;20048;-70
2023/05/12 04:27:33;;;;;;;7.60;4.78;;;;;;;12.70;56.05;101128.66;5089931;28;20047;-70
2023/05/12 04:30:00;;;;;;;12.27;4.95;;;;;;;12.72;55.99;101134.69;5086339;28;20101;-69
2023/05/12 04:32:28;;;;;;;11.70;4.85;;;;;;;12.75;56.81;101131.03;5077252;28;20078;-71
2023/05/12 04:34:55;;;;;;;10.07;5.00;;;;;;;12.77;55.63;101124.69;5081282;28;20044;-70
2023/05/12 04:37:22;;;;;;;19.25;5.60;;;;;;;12.81;55.80;101128.84;5066061;28;20080;-71
2023/05/12 04:39:50;;;;;;;9.40;4.30;;;;;;;12.85;55.65;101132.16;5084902;28;20040;-69
2023/05/12 04:42:17;;;;;;;10.27;4.88;;;;;;;12.87;55.69;101139.03;5080946;28;20044;-70
2023/05/12 04:44:45;;;;;;;13.73;5.32;;;;;;;12.90;55.46;101138.03;5082392;28;20152;-70
2023/05/12 04:47:12;;;;;;;11.60;4.90;;;;;;;12.94;55.63;101144.81;5061273;28;20052;-69
2023/05/12 04:49:40;;;;;;;13.95;4.63;;;;;;;12.98;55.53;101150.78;5082886;28;20127;-69
2023/05/12 04:52:07;;;;;;;8.07;5.10;;;;;;;13.02;55.32;101142.56;5083973;28;20151;-70
2023/05/12 04:54:35;;;;;;;15.02;5.47;;;;;;;13.07;55.21;101148.44;5084855;28;20074;-69
2023/05/12 04:57:02;;;;;;;9.95;4.95;;;;;;;13.17;54.66;101149.56;5078567;28;20076;-68
2023/05/12 04:59:30;;;;;;;7.20;4.88;;;;;;;13.27;54.76;101151.66;5083565;28;20111;-69
2023/05/12 05:01:57;;;;;;;9.07;5.30;;;;;;;13.33;54.58;101157.44;5076186;28;20059;-68
2023/05/12 05:04:25;;;;;;;10.80;5.00;;;;;;;13.38;54.18;101155.34;5080161;28;20135;-69
2023/05/12 05:06:54;;;;;;;10.95;5.10;;;;;;;13.46;54.29;101160.16;5081104;28;20080;-69
2023/05/12 05:09:21;;;;;;;9.63;4.85;;;;;;;13.53;54.41;101160.63;5071246;28;20052;-73
2023/05/12 05:11:48;;;;;;;11.50;5.35;;;;;;;13.64;54.14;101161.66;5082646;28;20058;-70
2023/05/12 05:14:16;;;;;;;14.43;5.18;;;;;;;13.72;53.61;101158.50;5084258;28;20424;-69
2023/05/12 05:16:44;;;;;;;13.32;5.40;;;;;;;13.82;53.81;101164.06;5081601;28;20058;-69
2023/05/12 05:19:15;;;;;;;8.20;4.82;;;;;;;13.92;53.56;101167.84;5087126;28;20047;-69
2023/05/12 05:21:52;;;;;;;9.18;5.15;;;;;;;14.08;53.08;101162.38;5085871;28;20075;-69
2023/05/12 05:24:19;;;;;;;14.70;5.40;;;;;;;14.21;52.90;101167.75;5083497;28;20142;-70
2023/05/12 05:26:47;;;;;;;14.65;4.97;;;;;;;14.35;52.16;101165.88;5086142;28;20058;-68
2023/05/12 05:29:14;;;;;;;10.52;4.85;;;;;;;14.50;51.89;101164.06;5085601;28;20051;-71
2023/05/12 05:31:41;;;;;;;10.35;4.70;;;;;;;14.63;51.21;101172.00;5081824;28;20052;-70
2023/05/12 05:34:08;;;;;;;15.90;4.72;;;;;;;14.69;51.12;101172.47;5079637;28;20080;-70
2023/05/12 05:36:38;;;;;;;12.02;5.90;;;;;;;14.77;51.19;101171.06;5083855;28;20055;-69
2023/05/12 05:39:05;;;;;;;13.38;5.97;;;;;;;14.87;50.73;101172.19;5067240;28;20134;-72
2023/05/12 05:41:32;;;;;;;10.30;5.00;;;;;;;14.96;50.71;101170.69;5081853;28;20044;-69
2023/05/12 05:44:00;;;;;;;10.48;5.07;;;;;;;15.02;50.55;101173.75;5073090;28;20052;-71
2023/05/12 05:46:27;;;;;;;9.65;5.22;;;;;;;15.10;50.07;101176.75;5079399;28;20064;-70
2023/05/12 05:48:55;;;;;;;13.45;5.18;;;;;;;15.22;49.95;101174.19;5079730;28;20065;-69
2023/05/12 05:51:23;;;;;;;10.85;4.70;;;;;;;15.28;49.59;101184.38;5062640;28;20060;-69
2023/05/12 05:53:50;;;;;;;15.27;5.40;;;;;;;15.35;49.19;101180.31;5086181;28;20052;-68
2023/05/12 05:56:18;;;;;;;14.02;5.72;;;;;;;15.44;48.82;101187.63;5079457;28;20052;-68
2023/05/12 05:58:46;;;;;;;10.32;4.53;;;;;;;15.53;48.80;101186.16;5066179;28;20522;-68
2023/05/12 06:01:15;;;;;;;12.98;4.75;;;;;;;15.63;48.64;101190.72;5080946;28;20055;-69
2023/05/12 06:03:43;;;;;;;6.57;4.22;;;;;;;15.73;48.47;101188.28;5066815;28;20040;-69
2023/05/12 06:06:10;;;;;;;12.93;4.60;;;;;;;15.84;48.33;101183.03;5081132;28;20147;-69
2023/05/12 06:08:38;;;;;;;10.90;5.22;;;;;;;15.92;48.35;101191.28;5085625;28;20068;-69
2023/05/12 06:11:06;;;;;;;7.05;4.75;;;;;;;15.98;48.00;101191.81;5081440;28;20422;-69
2023/05/12 06:13:35;;;;;;;16.85;5.13;;;;;;;16.05;48.01;101191.25;5071842;28;20048;-68
2023/05/12 06:16:02;;;;;;;7.63;4.85;;;;;;;16.12;47.85;101192.53;5080508;27;20580;-68
2023/05/12 06:18:32;;;;;;;12.88;5.03;;;;;;;16.23;47.94;101196.19;5086499;28;21497;-68
2023/05/12 06:21:00;;;;;;;12.32;4.65;;;;;;;16.30;47.62;101202.72;5082603;28;20566;-69
2023/05/12 06:23:27;;;;;;;7.45;4.57;;;;;;;16.39;47.02;101207.34;5084040;28;20530;-69
2023/05/12 06:25:54;;;;;;;8.55;4.93;;;;;;;16.48;47.11;101201.41;5082770;28;20193;-68
2023/05/12 06:28:22;;;;;;;9.10;4.22;;;;;;;16.60;46.82;101205.78;5080457;28;20066;-68
2023/05/12 06:30:54;;;;;;;9.60;4.22;;;;;;;16.69;46.47;101214.88;5080490;28;20046;-68
2023/05/12 06:33:22;;;;;;;10.52;4.30;;;;;;;16.75;45.91;101209.13;5080658;28;20085;-69
2023/05/12 06:35:50;;;;;;;10.23;3.80;;;;;;;16.83;46.08;101214.69;5086285;28;20531;-69
2023/05/12 06:38:17;;;;;;;8.85;4.18;;;;;;;16.90;45.93;101212.44;5083643;28;20400;-68
2023/05/12 06:40:45;;;;;;;11.13;4.93;;;;;;;16.99;45.97;101214.41;5084505;28;20048;-69
2023/05/12 06:43:13;;;;;;;10.98;4.07;;;;;;;17.11;45.86;101224.09;5081774;28;20568;-69
2023/05/12 06:45:42;;;;;;;10.13;4.10;;;;;;;17.17;45.77;101212.13;5098229;28;20567;-68
2023/05/12 06:48:09;;;;;;;13.25;4.88;;;;;;;17.23;45.66;101222.28;5079664;28;20475;-69
2023/05/12 06:50:39;;;;;;;9.10;4.80;;;;;;;17.34;45.41;101219.66;5078950;28;20127;-69
2023/05/12 06:53:06;;;;;;;12.23;3.92;;;;;;;17.40;45.04;101215.66;5081221;28;20075;-68
2023/05/12 06:55:34;;;;;;;8.68;3.90;;;;;;;17.46;44.89;101221.34;5075365;28;20055;-68
2023/05/12 06:58:02;;;;;;;10.60;3.80;;;;;;;17.57;44.81;101211.69;5065079;28;20063;-68
2023/05/12 07:00:29;;;;;;;6.35;3.75;;;;;;;17.62;44.78;101217.50;5079551;28;20043;-68
2023/05/12 07:02:56;;;;;;;12.88;4.00;;;;;;;17.71;44.29;101214.94;5085066;28;20091;-70
2023/05/12 07:05:24;;;;;;;6.75;3.47;;;;;;;17.78;44.56;101217.13;5084520;28;20640;-69
2023/05/12 07:07:51;;;;;;;9.73;4.38;;;;;;;17.91;44.23;101217.84;5103522;28;20056;-69
2023/05/12 07:10:20;;;;;;;10.05;4.07;;;;;;;18.01;44.01;101216.13;5082723;28;20079;-68
2023/05/12 07:12:47;;;;;;;9.63;4.47;;;;;;;18.13;43.77;101214.31;5078969;28;20083;-70
2023/05/12 07:15:14;;;;;;;13.93;4.25;;;;;;;18.25;43.45;101213.31;5081100;28;20080;-69
2023/05/12 07:17:42;;;;;;;16.95;3.72;;;;;;;18.32;43.24;101214.47;5077737;28;20048;-69
2023/05/12 07:20:09;;;;;;;10.43;3.30;;;;;;;18.40;43.13;101216.53;5076431;28;20156;-70
2023/05/12 07:22:37;;;;;;;8.57;3.83;;;;;;;18.48;43.03;101219.41;5076993;28;20143;-69
2023/05/12 07:25:10;;;;;;;8.52;4.03;;;;;;;18.57;42.88;101226.66;5065056;28;20140;-69
2023/05/12 07:27:38;;;;;;;7.53;3.28;;;;;;;18.68;42.94;101213.25;5051953;28;20078;-70
2023/05/12 07:30:07;;;;;;;12.63;4.13;;;;;;;18.74;42.59;101216.44;5065907;28;20052;-69
2023/05/12 07:32:37;;;;;;;12.15;3.85;;;;;;;18.77;42.17;101221.50;5062298;28;20040;-70
2023/05/12 07:35:05;;;;;;;8.48;3.78;;;;;;;18.89;42.21;101215.97;5086258;28;20697;-70
2023/05/12 07:37:33;;;;;;;13.43;4.30;;;;;;;19.02;41.75;101221.13;5086847;28;20048;-69
2023/05/12 07:40:01;;;;;;;7.10;4.03;;;;;;;19.11;41.99;101215.00;5083884;28;20047;-69
2023/05/12 07:42:28;;;;;;;9.75;4.18;;;;;;;19.18;41.78;101213.50;5082396;28;20071;-70
2023/05/12 07:44:56;;;;;;;9.50;3.85;;;;;;;19.28;41.63;101216.22;5064308;28;20139;-69
2023/05/12 07:47:23;;;;;;;7.72;3.63;;;;;;;19.39;41.33;101212.63;5084986;28;20067;-69
2023/05/12 07:49:51;;;;;;;7.95;3.33;;;;;;;19.49;40.98;101218.84;5073581;28;20075;-69
2023/05/12 07:52:19;;;;;;;15.50;3.78;;;;;;;19.54;40.90;101221.94;5085377;28;20128;-69
2023/05/12 07:54:47;;;;;;;7.05;3.70;;;;;;;19.64;40.91;101222.88;5082847;28;20093;-70
2023/05/12 07:57:15;;;;;;;9.90;4.70;;;;;;;19.78;40.50;101226.19;5061954;28;20046;-70
2023/05/12 07:59:43;;;;;;;9.45;3.58;;;;;;;19.89;40.32;101226.06;5083531;28;20066;-71
2023/05/12 08:02:10;;;;;;;15.23;3.80;;;;;;;19.96;39.90;101224.53;5081163;28;20136;-70
2023/05/12 08:04:37;;;;;;;8.48;3.63;;;;;;;20.03;39.89;101214.97;5084957;28;20531;-70
2023/05/12 08:07:04;;;;;;;12.68;4.00;;;;;;;20.11;39.72;101219.66;5085190;28;20102;-69
2023/05/12 08:09:32;;;;;;;10.48;3.60;;;;;;;20.23;39.33;101218.56;5078947;28;20052;-67
2023/05/12 08:12:00;;;;;;;12.52;3.60;;;;;;;20.34;38.77;101223.75;5081876;28;20452;-68
2023/05/12 08:14:27;;;;;;;5.70;3.25;;;;;;;20.38;38.57;101221.66;5057809;28;20052;-68
2023/05/12 08:16:54;;;;;;;8.70;3.13;;;;;;;20.48;38.43;101222.53;5080480;28;20055;-70
2023/05/12 08:19:21;;;;;;;9.77;3.65;;;;;;;20.54;38.37;101223.81;5082824;28;20575;-69
2023/05/12 08:21:50;;;;;;;6.85;4.22;;;;;;;20.52;38.12;101218.59;5081668;28;20468;-70
2023/05/12 08:24:17;;;;;;;7.32;3.05;;;;;;;20.62;37.77;101223.94;5082381;28;20056;-69
2023/05/12 08:26:44;;;;;;;4.75;2.95;;;;;;;20.74;37.64;101214.78;5084005;28;20623;-69
2023/05/12 08:29:11;;;;;;;8.90;3.13;;;;;;;20.85;37.24;101217.34;5087162;28;20641;-69
2023/05/12 08:31:39;;;;;;;6.30;3.42;;;;;;;20.92;36.20;101212.25;5077761;28;20098;-70
2023/05/12 08:34:06;;;;;;;7.70;3.20;;;;;;;21.01;36.10;101216.72;5066750;28;20058;-69
2023/05/12 08:36:40;;;;;;;8.63;3.60;;;;;;;21.08;35.15;101215.19;5079052;28;20153;-68
2023/05/12 08:39:11;;;;;;;10.43;3.10;;;;;;;21.10;33.92;101223.91;5082142;28;20044;-71
2023/05/12 08:41:54;;;;;;;6.82;3.17;;;;;;;21.08;33.61;101223.22;5064781;28;20058;-69
2023/05/12 08:44:22;;;;;;;6.53;2.83;;;;;;;21.20;33.40;101222.03;5084163;28;20101;-70
2023/05/12 08:46:50;;;;;;;9.48;3.33;;;;;;;21.27;32.89;101227.69;5084230;28;20070;-69
2023/05/12 08:49:20;;;;;;;8.85;2.70;;;;;;;21.29;32.88;101231.03;5088584;28;20051;-70
2023/05/12 08:51:49;;;;;;;12.75;2.60;;;;;;;21.40;32.46;101222.88;5087248;28;20044;-69
2023/05/12 08:54:26;;;;;;;5.45;2.47;;;;;;;21.53;32.33;101225.22;5087366;28;20054;-69
2023/05/12 08:56:54;;;;;;;4.90;2.97;;;;;;;21.49;32.01;101226.50;5066283;28;20058;-70
2023/05/12 08:59:24;;;;;;;5.20;2.20;;;;;;;21.48;31.44;101224.84;5087082;28;20127;-69
2023/05/12 09:01:53;;;;;;;4.30;2.80;;;;;;;21.51;31.66;101229.03;5084019;28;20703;-68
2023/05/12 09:04:20;;;;;;;10.15;2.78;;;;;;;21.53;31.31;101235.09;5085246;28;20045;-69
2023/05/12 09:06:48;;;;;;;6.10;2.70;;;;;;;21.63;30.24;101219.81;5082550;28;20048;-68
2023/05/12 09:09:16;;;;;;;8.10;2.70;;;;;;;21.73;30.59;101221.47;5076681;28;20164;-68
2023/05/12 09:11:44;;;;;;;3.88;2.60;;;;;;;21.84;31.35;101217.75;5076053;28;20403;-67
2023/05/12 09:14:16;;;;;;;5.00;2.40;;;;;;;21.95;31.18;101222.91;5082363;28;20601;-68
2023/05/12 09:16:45;;;;;;;5.10;2.40;;;;;;;22.06;31.07;101226.38;5066006;28;20135;-67
2023/05/12 09:19:18;;;;;;;6.93;2.92;;;;;;;22.09;30.02;101226.91;5084290;28;20060;-68
2023/05/12 09:21:49;;;;;;;6.03;2.42;;;;;;;22.12;30.10;101221.28;5082247;28;20139;-68
2023/05/12 09:24:16;;;;;;;5.75;2.60;;;;;;;22.17;30.23;101216.31;5066982;28;20063;-69
2023/05/12 09:26:48;;;;;;;6.65;2.72;;;;;;;22.17;29.98;101218.16;5064890;28;20135;-69
2023/05/12 09:29:16;;;;;;;6.97;2.05;;;;;;;22.14;29.73;101213.09;5082850;28;20333;-68
2023/05/12 09:31:58;;;;;;;5.40;2.65;;;;;;;22.23;29.62;101213.00;5084201;28;20052;-69
2023/05/12 09:34:27;;;;;;;5.45;2.47;;;;;;;;;;5081323;28;20056;-69
2023/05/12 09:36:59;;;;;;;7.63;2.22;;;;;;;22.48;29.55;101221.31;5074192;28;20526;-69
2023/05/12 09:39:27;;;;;;;3.72;2.58;;;;;;;22.50;28.37;101219.31;5084836;28;21840;-68
2023/05/12 09:41:55;;;;;;;4.28;2.33;;;;;;;22.56;28.59;101220.53;5077800;28;20093;-69
2023/05/12 09:44:23;;;;;;;8.38;2.60;;;;;;;22.52;28.17;101217.34;5081421;28;20044;-69
2023/05/12 09:46:51;;;;;;;7.40;2.45;;;;;;;22.59;28.16;101207.66;5086054;28;20088;-70
2023/05/12 09:49:26;;;;;;;6.85;2.10;;;;;;;22.60;27.37;101209.34;5065649;28;20214;-70
2023/05/12 09:51:57;;;;;;;3.50;2.10;;;;;;;22.62;27.27;101211.88;5082775;28;20040;-69
2023/05/12 09:54:29;;;;;;;8.55;2.45;;;;;;;22.64;27.79;101215.25;5079821;28;20150;-70
2023/05/12 09:57:01;;;;;;;2.78;1.98;;;;;;;22.72;27.80;101215.31;5077566;28;20047;-69
2023/05/12 09:59:33;;;;;;;5.00;2.40;;;;;;;22.80;28.00;101204.66;5080217;28;20482;-70
2023/05/12 10:02:02;;;;;;;6.15;2.90;;;;;;;22.80;27.75;101211.88;5077755;28;20058;-72
2023/05/12 10:08:44;;;;;;;6.40;2.22;;;;;;;22.85;27.71;101206.88;5080714;28;20407;-70
2023/05/12 10:11:12;;;;;;;8.05;2.85;;;;;;;22.96;27.65;101212.00;5048997;28;20099;-71
2023/05/12 10:13:39;;;;;;;11.32;2.95;;;;;;;23.00;27.16;101213.38;5052527;28;20068;-70
2023/05/12 10:16:07;;;;;;;9.05;2.22;;;;;;;23.07;26.66;101210.94;5104404;28;20060;-72
2023/05/12 10:18:35;;;;;;;12.35;3.15;;;;;;;23.05;27.12;101204.84;5083250;28;20782;-71
2023/05/12 10:21:02;;;;;;;7.80;2.58;;;;;;;23.05;26.99;101207.53;5085662;28;20044;-72
2023/05/12 10:23:30;;;;;;;10.05;2.85;;;;;;;23.14;27.83;101204.75;5083354;28;20139;-73
2023/05/12 10:26:00;;;;;;;8.35;2.53;;;;;;;23.32;28.57;101196.63;5084316;28;20052;-72
2023/05/12 10:28:28;;;;;;;4.60;2.25;;;;;;;23.55;28.04;101205.00;5085046;28;20139;-71
2023/05/12 10:30:56;;;;;;;11.02;2.70;;;;;;;23.65;28.19;101200.38;5064309;28;20062;-71
2023/05/12 10:33:25;;;;;;;7.20;2.50;;;;;;;23.69;27.96;101195.50;5083123;28;20040;-72
2023/05/12 10:35:52;;;;;;;4.13;2.30;;;;;;;23.80;27.87;101195.22;5075850;28;20082;-73
2023/05/12 10:38:20;;;;;;;6.95;2.15;;;;;;;23.84;27.68;101195.72;5086896;28;20043;-72
2023/05/12 10:41:08;;;;;;;5.38;2.95;;;;;;;23.92;27.35;101195.75;5086100;28;20067;-72
2023/05/12 10:43:41;;;;;;;4.03;2.20;;;;;;;23.98;27.60;101187.88;5064990;28;20048;-72
2023/05/12 10:46:12;;;;;;;8.27;2.67;;;;;;;24.23;27.52;101183.38;5049205;28;20132;-73
2023/05/12 10:48:53;;;;;;;5.47;2.30;;;;;;;24.37;27.10;101200.75;5081917;28;20167;-73
2023/05/12 10:51:22;;;;;;;6.07;2.42;;;;;;;24.43;27.29;101193.88;5081118;28;20139;-72
2023/05/12 10:54:00;;;;;;;3.65;2.40;;;;;;;24.25;26.85;101181.38;5078134;28;20489;-73
2023/05/12 10:56:29;;;;;;;7.60;2.33;;;;;;;24.42;27.70;101186.81;5081129;28;20541;-75
2023/05/12 10:59:06;;;;;;;8.55;2.30;;;;;;;24.54;27.50;101193.53;5082167;28;20152;-72
2023/05/12 11:01:34;;;;;;;5.90;2.42;;;;;;;24.63;27.54;101192.53;5083684;28;20052;-73
2023/05/12 11:04:15;;;;;;;6.35;2.78;;;;;;;24.81;26.98;101191.50;5079843;28;20047;-73
2023/05/12 11:06:43;;;;;;;5.18;2.65;;;;;;;24.94;27.09;101198.06;5079916;28;20571;-72
2023/05/12 11:09:12;;;;;;;4.32;2.53;;;;;;;24.94;26.30;101195.34;5068752;28;20051;-72
2023/05/12 11:11:40;;;;;;;6.38;2.70;;;;;;;24.85;26.86;101193.69;5067058;28;20062;-71
2023/05/12 11:14:08;;;;;;;5.88;2.42;;;;;;;24.93;27.23;101192.84;5081576;28;20060;-72
2023/05/12 11:16:42;;;;;;;4.07;2.45;;;;;;;25.05;27.17;101187.97;5061253;28;20490;-72
2023/05/12 11:19:09;;;;;;;6.63;2.78;;;;;;;24.99;26.90;101179.56;5079470;28;20048;-70
2023/05/12 11:21:37;;;;;;;9.43;3.05;;;;;;;25.07;27.17;101186.75;5064001;28;20074;-71
2023/05/12 11:24:04;;;;;;;5.07;2.60;;;;;;;25.22;26.91;101186.94;5084551;28;20139;-71
2023/05/12 11:26:32;;;;;;;9.98;3.15;;;;;;;25.37;26.36;101189.75;5079038;28;20056;-71
2023/05/12 11:29:02;;;;;;;5.68;2.22;;;;;;;25.42;25.61;101182.81;5096093;28;20151;-71
2023/05/12 11:31:29;;;;;;;7.85;2.58;;;;;;;25.55;26.01;101195.75;5066043;28;20732;-71
2023/05/12 11:34:09;;;;;;;7.28;2.80;;;;;;;25.59;26.16;101182.78;5073722;28;20076;-73